createdAt,value
2018-08-22T00:01:36.183Z,16.41
2018-08-22T00:04:03.451Z,16.39
2018-08-22T00:06:30.756Z,16.38
2018-08-22T00:08:58.024Z,16.38
2018-08-22T00:11:25.222Z,16.39
2018-08-22T00:13:52.487Z,16.37
2018-08-22T00:16:22.687Z,16.36
2018-08-22T00:21:40.296Z,16.26
2018-08-22T00:24:07.543Z,16.21
2018-08-22T00:26:34.764Z,16.12
2018-08-22T00:29:02.046Z,16.13
2018-08-22T00:31:29.368Z,16.12
2018-08-22T00:33:56.605Z,16.10
2018-08-22T00:36:23.838Z,15.88
2018-08-22T00:38:51.088Z,15.67
2018-08-22T00:41:18.342Z,15.55
2018-08-22T00:43:45.591Z,15.55
2018-08-22T00:46:12.826Z,15.56
2018-08-22T00:48:40.093Z,15.59
2018-08-22T00:51:07.320Z,15.58
2018-08-22T00:53:34.604Z,15.50
2018-08-22T00:56:01.883Z,15.45
2018-08-22T00:58:29.089Z,15.28
2018-08-22T01:00:56.350Z,15.17
2018-08-22T01:03:23.610Z,15.05
2018-08-22T01:05:50.866Z,14.96
2018-08-22T01:08:18.320Z,14.94
2018-08-22T01:10:45.550Z,14.96
2018-08-22T01:13:12.806Z,14.91
2018-08-22T01:15:40.038Z,14.86
2018-08-22T01:18:07.310Z,14.78
2018-08-22T01:20:34.914Z,14.72
2018-08-22T01:23:04.318Z,14.56
2018-08-22T01:25:31.559Z,14.52
2018-08-22T01:27:58.840Z,14.58
2018-08-22T01:30:26.038Z,14.70
2018-08-22T01:32:53.294Z,14.79
2018-08-22T01:35:20.537Z,14.77
2018-08-22T01:37:47.780Z,14.79
2018-08-22T01:40:15.015Z,14.86
2018-08-22T01:42:42.254Z,14.80
2018-08-22T01:45:09.507Z,14.78
2018-08-22T01:47:36.755Z,14.82
2018-08-22T01:50:03.991Z,14.85
2018-08-22T01:52:31.225Z,14.83
2018-08-22T01:54:58.462Z,14.81
2018-08-22T01:57:25.690Z,14.81
2018-08-22T01:59:52.938Z,14.83
2018-08-22T02:02:20.162Z,14.86
2018-08-22T02:04:47.422Z,14.89
2018-08-22T02:07:14.651Z,14.84
2018-08-22T02:09:41.907Z,14.76
2018-08-22T02:12:09.114Z,14.62
2018-08-22T02:14:36.365Z,14.38
2018-08-22T02:17:03.683Z,14.20
2018-08-22T02:19:30.962Z,14.27
2018-08-22T02:21:58.192Z,14.26
2018-08-22T02:24:25.419Z,14.34
2018-08-22T02:26:52.689Z,14.43
2018-08-22T02:29:19.959Z,14.46
2018-08-22T02:31:49.440Z,14.54
2018-08-22T02:34:16.702Z,14.47
2018-08-22T02:36:43.979Z,14.47
2018-08-22T02:39:11.240Z,14.46
2018-08-22T02:41:38.500Z,14.48
2018-08-22T02:44:05.792Z,14.48
2018-08-22T02:46:33.015Z,14.44
2018-08-22T02:49:00.283Z,14.48
2018-08-22T02:51:27.503Z,14.51
2018-08-22T02:53:54.765Z,14.55
2018-08-22T02:56:22.587Z,14.56
2018-08-22T02:58:50.068Z,14.53
2018-08-22T03:01:17.412Z,14.47
2018-08-22T03:03:44.738Z,14.43
2018-08-22T03:06:11.973Z,14.36
2018-08-22T03:08:39.243Z,14.29
2018-08-22T03:11:06.516Z,14.39
2018-08-22T03:13:33.782Z,14.50
2018-08-22T03:16:01.003Z,14.60
2018-08-22T03:18:29.295Z,14.67
2018-08-22T03:20:58.075Z,14.66
2018-08-22T03:23:26.237Z,14.60
2018-08-22T03:26:03.444Z,14.52
2018-08-22T03:28:40.788Z,14.47
2018-08-22T03:31:18.523Z,14.46
2018-08-22T03:33:45.765Z,14.40
2018-08-22T03:36:13.049Z,14.39
2018-08-22T03:38:40.320Z,14.38
2018-08-22T03:41:07.577Z,14.38
2018-08-22T03:43:34.823Z,14.25
2018-08-22T03:46:02.122Z,14.18
2018-08-22T03:48:29.386Z,14.16
2018-08-22T03:50:57.894Z,14.01
2018-08-22T03:53:25.156Z,13.89
2018-08-22T03:55:52.430Z,13.89
2018-08-22T03:58:19.797Z,13.92
2018-08-22T04:00:47.112Z,13.94
2018-08-22T04:03:14.438Z,13.95
2018-08-22T04:05:41.823Z,13.92
2018-08-22T04:08:09.808Z,13.84
2018-08-22T04:10:37.191Z,13.86
2018-08-22T04:13:07.844Z,13.93
2018-08-22T04:15:35.263Z,13.98
2018-08-22T04:18:05.095Z,14.02
2018-08-22T04:20:32.506Z,14.08
2018-08-22T04:22:59.858Z,14.08
2018-08-22T04:25:27.230Z,14.12
2018-08-22T04:27:55.194Z,14.18
2018-08-22T04:30:22.592Z,14.26
2018-08-22T04:32:50.036Z,14.33
2018-08-22T04:35:17.485Z,14.38
2018-08-22T04:37:44.788Z,14.47
2018-08-22T04:40:12.209Z,14.57
2018-08-22T04:42:40.098Z,14.68
2018-08-22T04:45:08.529Z,14.76
2018-08-22T04:47:35.848Z,14.86
2018-08-22T04:50:03.289Z,14.98
2018-08-22T04:52:30.603Z,15.12
2018-08-22T04:54:58.158Z,15.14
2018-08-22T04:57:25.538Z,15.24
2018-08-22T04:59:52.903Z,15.38
2018-08-22T05:02:20.277Z,15.52
2018-08-22T05:04:47.620Z,15.64
2018-08-22T05:07:15.038Z,15.75
2018-08-22T05:09:42.528Z,15.88
2018-08-22T05:12:09.841Z,16.04
2018-08-22T05:14:37.191Z,16.23
2018-08-22T05:17:05.090Z,16.43
2018-08-22T05:19:32.500Z,16.49
2018-08-22T05:21:59.840Z,16.54
2018-08-22T05:24:27.944Z,16.61
2018-08-22T05:26:55.267Z,16.74
2018-08-22T05:29:22.630Z,16.82
2018-08-22T05:31:49.957Z,16.93
2018-08-22T05:34:17.360Z,17.04
2018-08-22T05:36:44.758Z,17.10
2018-08-22T05:39:12.913Z,17.17
2018-08-22T05:41:40.671Z,17.20
2018-08-22T05:44:08.303Z,17.26
2018-08-22T05:46:35.685Z,17.29
2018-08-22T05:49:04.162Z,17.40
2018-08-22T05:51:31.610Z,17.51
2018-08-22T05:53:58.998Z,17.64
2018-08-22T05:56:26.311Z,17.74
2018-08-22T05:58:53.634Z,17.94
2018-08-22T06:01:21.001Z,18.13
2018-08-22T06:03:48.329Z,18.25
2018-08-22T06:06:15.799Z,18.30
2018-08-22T06:08:43.236Z,18.43
2018-08-22T06:11:10.709Z,18.53
2018-08-22T06:13:38.100Z,18.71
2018-08-22T06:16:05.671Z,18.83
2018-08-22T06:18:33.221Z,18.95
2018-08-22T06:21:00.694Z,19.02
2018-08-22T06:23:28.281Z,19.12
2018-08-22T06:25:57.453Z,19.21
2018-08-22T06:28:24.963Z,19.33
2018-08-22T06:30:53.444Z,19.24
2018-08-22T06:33:21.394Z,19.35
2018-08-22T06:35:48.777Z,19.50
2018-08-22T06:38:31.980Z,19.33
2018-08-22T06:40:59.800Z,19.58
2018-08-22T06:43:27.181Z,19.87
2018-08-22T06:45:54.793Z,20.14
2018-08-22T06:48:22.403Z,20.48
2018-08-22T06:50:49.736Z,20.48
2018-08-22T06:53:17.087Z,20.55
2018-08-22T06:55:44.417Z,20.97
2018-08-22T06:58:11.784Z,21.22
2018-08-22T07:00:39.130Z,21.47
2018-08-22T07:03:06.466Z,22.19
2018-08-22T07:05:33.770Z,22.69
2018-08-22T07:08:01.135Z,23.39
2018-08-22T07:10:29.295Z,23.55
2018-08-22T07:12:57.738Z,23.68
2018-08-22T07:15:30.175Z,23.48
2018-08-22T07:18:11.407Z,23.08
2018-08-22T07:20:52.800Z,22.88
2018-08-22T07:23:30.814Z,22.80
2018-08-22T07:26:03.823Z,22.73
2018-08-22T07:28:35.452Z,22.11
2018-08-22T07:31:07.960Z,22.33
2018-08-22T07:33:39.940Z,22.34
2018-08-22T07:36:12.295Z,22.55
2018-08-22T07:38:45.274Z,22.79
2018-08-22T07:41:16.402Z,22.88
2018-08-22T07:43:43.872Z,23.03
2018-08-22T07:46:11.939Z,23.01
2018-08-22T07:48:39.324Z,22.91
2018-08-22T07:51:06.855Z,22.91
2018-08-22T07:53:34.207Z,23.13
2018-08-22T07:56:01.562Z,23.06
2018-08-22T07:58:28.895Z,23.18
2018-08-22T08:00:57.544Z,23.43
2018-08-22T08:03:24.925Z,23.42
2018-08-22T08:05:52.288Z,23.65
2018-08-22T08:08:19.629Z,23.70
2018-08-22T08:10:47.515Z,23.91
2018-08-22T08:13:20.458Z,23.86
2018-08-22T08:15:47.807Z,23.74
2018-08-22T08:18:15.346Z,23.69
2018-08-22T08:20:42.741Z,23.89
2018-08-22T08:23:10.368Z,24.25
2018-08-22T08:25:37.740Z,24.32
2018-08-22T08:28:05.830Z,24.38
2018-08-22T08:30:33.304Z,24.58
2018-08-22T08:33:00.633Z,24.72
2018-08-22T08:35:27.985Z,24.84
2018-08-22T08:37:55.469Z,24.87
2018-08-22T08:40:22.848Z,24.96
2018-08-22T08:42:50.383Z,25.03
2018-08-22T08:45:17.803Z,25.15
2018-08-22T08:47:45.195Z,25.29
2018-08-22T08:50:13.451Z,25.42
2018-08-22T08:52:41.131Z,25.59
2018-08-22T08:55:09.437Z,26.13
2018-08-22T08:57:36.932Z,26.80
2018-08-22T09:00:04.718Z,27.27
2018-08-22T09:02:32.132Z,27.75
2018-08-22T09:05:06.231Z,27.99
2018-08-22T09:07:33.739Z,28.24
2018-08-22T09:10:01.219Z,28.51
2018-08-22T09:12:28.967Z,28.56
2018-08-22T09:17:23.651Z,28.43
2018-08-22T09:19:50.985Z,28.28
2018-08-22T09:22:18.461Z,28.78
2018-08-22T09:24:45.852Z,29.17
2018-08-22T09:27:13.176Z,29.55
2018-08-22T09:29:40.626Z,29.87
2018-08-22T09:32:08.023Z,30.38
2018-08-22T09:34:35.358Z,30.46
2018-08-22T09:37:04.950Z,30.69
2018-08-22T09:39:32.376Z,30.77
2018-08-22T09:41:59.649Z,30.34
2018-08-22T09:44:27.022Z,30.71
2018-08-22T09:46:54.450Z,30.87
2018-08-22T09:49:22.313Z,31.04
2018-08-22T09:51:49.631Z,30.88
2018-08-22T09:54:16.971Z,30.59
2018-08-22T09:56:44.327Z,31.20
2018-08-22T09:59:11.659Z,31.69
2018-08-22T10:01:41.078Z,31.87
2018-08-22T10:04:08.861Z,32.16
2018-08-22T10:06:43.378Z,32.61
2018-08-22T10:09:12.408Z,32.67
2018-08-22T10:11:39.703Z,32.27
2018-08-22T10:14:07.706Z,32.45
2018-08-22T10:16:35.305Z,32.99
2018-08-22T10:19:03.917Z,33.10
2018-08-22T10:21:31.272Z,33.00
2018-08-22T10:23:58.603Z,33.03
2018-08-22T10:26:26.002Z,33.48
2018-08-22T10:28:53.917Z,32.99
2018-08-22T10:31:21.815Z,32.58
2018-08-22T10:33:49.102Z,32.94
2018-08-22T10:36:17.019Z,32.94
2018-08-22T10:38:44.390Z,33.11
2018-08-22T10:41:11.759Z,33.10
2018-08-22T10:43:39.253Z,33.15
2018-08-22T10:46:07.214Z,32.91
2018-08-22T10:48:35.259Z,31.93
2018-08-22T10:51:03.315Z,32.08
2018-08-22T10:53:30.657Z,32.51
2018-08-22T10:55:58.090Z,33.24
2018-08-22T10:58:25.454Z,33.06
2018-08-22T11:00:52.936Z,32.22
2018-08-22T11:03:20.278Z,32.58
2018-08-22T11:05:47.646Z,32.76
2018-08-22T11:08:14.960Z,33.01
2018-08-22T11:10:42.377Z,33.55
2018-08-22T11:13:09.735Z,32.81
2018-08-22T11:15:37.765Z,33.09
2018-08-22T11:18:06.055Z,33.36
2018-08-22T11:20:33.292Z,33.02
2018-08-22T11:23:12.329Z,32.70
2018-08-22T11:25:51.343Z,33.40
2018-08-22T11:28:30.295Z,33.65
2018-08-22T11:31:09.175Z,33.95
2018-08-22T11:33:48.464Z,33.49
2018-08-22T11:36:14.770Z,33.07
2018-08-22T11:38:42.107Z,33.47
2018-08-22T11:41:09.815Z,33.61
2018-08-22T11:43:37.660Z,33.21
2018-08-22T11:46:05.128Z,33.57
2018-08-22T11:48:32.541Z,33.69
2018-08-22T11:51:00.110Z,33.51
2018-08-22T11:53:27.535Z,33.30
2018-08-22T11:55:55.004Z,33.49
2018-08-22T11:58:23.172Z,33.80
2018-08-22T12:00:50.767Z,33.96
2018-08-22T12:03:18.234Z,33.90
2018-08-22T12:05:45.692Z,34.06
2018-08-22T12:08:13.299Z,33.88
2018-08-22T12:10:40.725Z,34.50
2018-08-22T12:13:07.993Z,34.65
2018-08-22T12:15:35.875Z,34.70
2018-08-22T12:18:03.379Z,33.51
2018-08-22T12:20:31.123Z,33.54
2018-08-22T12:22:58.528Z,33.32
2018-08-22T12:25:25.881Z,33.74
2018-08-22T12:27:53.233Z,33.88
2018-08-22T12:30:20.847Z,34.21
2018-08-22T12:32:48.184Z,34.10
2018-08-22T12:35:15.543Z,33.92
2018-08-22T12:37:42.914Z,33.97
2018-08-22T12:40:10.304Z,34.13
2018-08-22T12:42:37.961Z,34.39
2018-08-22T12:45:06.192Z,34.22
2018-08-22T12:47:33.516Z,34.34
2018-08-22T12:50:00.896Z,34.19
2018-08-22T12:52:28.238Z,34.12
2018-08-22T12:54:55.631Z,34.47
2018-08-22T12:57:22.988Z,33.61
2018-08-22T12:59:50.278Z,33.60
2018-08-22T13:02:17.622Z,32.95
2018-08-22T13:04:44.993Z,33.80
2018-08-22T13:07:16.402Z,34.08
2018-08-22T13:09:43.749Z,33.99
2018-08-22T13:12:11.812Z,34.50
2018-08-22T13:14:49.398Z,34.69
2018-08-22T13:17:26.082Z,34.68
2018-08-22T13:19:53.485Z,34.71
2018-08-22T13:22:20.839Z,34.12
2018-08-22T13:24:48.252Z,34.30
2018-08-22T13:27:15.520Z,33.78
2018-08-22T13:29:43.057Z,34.20
2018-08-22T13:32:10.858Z,33.80
2018-08-22T13:34:38.210Z,34.08
2018-08-22T13:37:06.322Z,34.39
2018-08-22T13:39:33.631Z,34.13
2018-08-22T13:42:03.050Z,33.48
2018-08-22T13:44:31.093Z,33.32
2018-08-22T13:46:59.337Z,33.25
2018-08-22T13:49:26.721Z,33.37
2018-08-22T13:51:54.107Z,33.39
2018-08-22T13:54:22.285Z,32.93
2018-08-22T13:56:49.686Z,32.83
2018-08-22T13:59:17.612Z,32.75
2018-08-22T14:01:45.067Z,32.51
2018-08-22T14:04:12.441Z,32.02
2018-08-22T14:06:39.906Z,32.04
2018-08-22T14:09:09.924Z,31.56
2018-08-22T14:11:37.381Z,31.41
2018-08-22T14:14:04.930Z,31.78
2018-08-22T14:16:32.293Z,31.79
2018-08-22T14:18:59.654Z,31.25
2018-08-22T14:21:29.204Z,31.34
2018-08-22T14:23:56.616Z,31.49
2018-08-22T14:26:24.551Z,31.24
2018-08-22T14:28:52.193Z,31.26
2018-08-22T14:31:19.752Z,31.06
2018-08-22T14:33:47.210Z,30.96
2018-08-22T14:36:14.495Z,31.06
2018-08-22T14:38:42.792Z,30.97
2018-08-22T14:41:10.228Z,30.94
2018-08-22T14:43:38.799Z,30.96
2018-08-22T14:46:06.123Z,31.03
2018-08-22T14:48:33.430Z,31.25
2018-08-22T14:51:01.321Z,31.31
2018-08-22T14:53:28.691Z,31.21
2018-08-22T14:55:57.135Z,31.26
2018-08-22T14:58:24.687Z,31.16
2018-08-22T15:00:52.288Z,31.09
2018-08-22T15:03:19.919Z,30.95
2018-08-22T15:05:47.123Z,31.16
2018-08-22T15:08:14.490Z,31.11
2018-08-22T15:10:46.118Z,31.27
2018-08-22T15:13:14.302Z,31.11
2018-08-22T15:15:41.689Z,31.18
2018-08-22T15:18:09.093Z,31.15
2018-08-22T15:20:37.363Z,31.05
2018-08-22T15:23:05.868Z,31.10
2018-08-22T15:25:33.555Z,30.82
2018-08-22T15:28:00.949Z,30.41
2018-08-22T15:30:28.335Z,30.53
2018-08-22T15:32:55.742Z,30.56
2018-08-22T15:35:23.437Z,30.54
2018-08-22T15:37:50.982Z,30.31
2018-08-22T15:40:20.585Z,30.28
2018-08-22T15:42:49.425Z,30.25
2018-08-22T15:45:16.870Z,30.21
2018-08-22T15:47:44.419Z,30.19
2018-08-22T15:50:12.247Z,30.25
2018-08-22T15:52:39.915Z,30.20
2018-08-22T15:55:14.562Z,30.09
2018-08-22T15:58:00.103Z,30.12
2018-08-22T16:00:38.868Z,30.11
2018-08-22T16:03:07.457Z,29.92
2018-08-22T16:05:35.778Z,30.00
2018-08-22T16:08:03.677Z,30.00
2018-08-22T16:10:33.132Z,30.00
2018-08-22T16:13:01.119Z,29.98
2018-08-22T16:15:34.764Z,29.82
2018-08-22T16:18:07.712Z,29.65
2018-08-22T16:21:08.453Z,29.61
2018-08-22T16:23:35.887Z,29.50
2018-08-22T16:26:04.170Z,29.47
2018-08-22T16:28:43.495Z,29.48
2018-08-22T16:31:11.078Z,29.60
2018-08-22T16:33:38.432Z,29.57
2018-08-22T16:36:06.182Z,29.58
2018-08-22T16:38:33.558Z,29.46
2018-08-22T16:41:00.861Z,29.31
2018-08-22T16:43:40.506Z,29.41
2018-08-22T16:46:09.697Z,29.34
2018-08-22T16:48:37.501Z,29.25
2018-08-22T16:51:04.978Z,29.22
2018-08-22T16:53:32.827Z,29.15
2018-08-22T16:56:00.152Z,29.17
2018-08-22T16:58:27.529Z,29.16
2018-08-22T17:00:54.836Z,29.12
2018-08-22T17:03:22.224Z,29.09
2018-08-22T17:05:50.161Z,29.09
2018-08-22T17:08:18.158Z,29.00
2018-08-22T17:10:52.963Z,28.95
2018-08-22T17:13:26.551Z,28.81
2018-08-22T17:16:01.225Z,28.81
2018-08-22T17:18:28.753Z,28.74
2018-08-22T17:20:56.606Z,28.68
2018-08-22T17:23:24.536Z,28.67
2018-08-22T17:25:51.858Z,28.63
2018-08-22T17:28:24.899Z,28.56
2018-08-22T17:30:52.231Z,28.50
2018-08-22T17:33:19.712Z,28.46
2018-08-22T17:35:47.088Z,28.41
2018-08-22T17:38:14.448Z,28.37
2018-08-22T17:40:42.127Z,28.30
2018-08-22T17:43:09.777Z,28.22
2018-08-22T17:45:38.357Z,28.12
2018-08-22T17:48:07.037Z,28.08
2018-08-22T17:50:34.387Z,28.00
2018-08-22T17:53:05.974Z,27.90
2018-08-22T17:55:33.417Z,27.87
2018-08-22T17:58:01.413Z,27.79
2018-08-22T18:00:31.937Z,27.70
2018-08-22T18:03:01.221Z,27.59
2018-08-22T18:05:29.672Z,27.48
2018-08-22T18:07:57.853Z,27.33
2018-08-22T18:10:25.721Z,27.25
2018-08-22T18:12:54.335Z,27.07
2018-08-22T18:15:22.053Z,26.83
2018-08-22T18:17:49.511Z,26.61
2018-08-22T18:20:17.975Z,26.47
2018-08-22T18:22:46.185Z,26.40
2018-08-22T18:25:13.831Z,26.26
2018-08-22T18:27:41.442Z,26.17
2018-08-22T18:30:11.628Z,26.08
2018-08-22T18:32:39.163Z,25.91
2018-08-22T18:35:08.968Z,25.74
2018-08-22T18:37:36.632Z,25.60
2018-08-22T18:40:19.050Z,25.51
2018-08-22T18:42:50.355Z,25.47
2018-08-22T18:45:18.314Z,25.40
2018-08-22T18:47:46.295Z,25.33
2018-08-22T18:50:45.797Z,25.26
2018-08-22T18:53:15.075Z,25.23
2018-08-22T18:55:42.555Z,25.25
2018-08-22T18:58:10.518Z,25.27
2018-08-22T19:00:38.429Z,25.20
2018-08-22T19:03:05.867Z,25.16
2018-08-22T19:05:34.598Z,25.13
2018-08-22T19:08:12.468Z,25.10
2018-08-22T19:10:41.099Z,25.08
2018-08-22T19:13:14.099Z,25.07
2018-08-22T19:15:41.648Z,25.09
2018-08-22T19:18:09.789Z,25.06
2018-08-22T19:20:38.268Z,25.01
2018-08-22T19:23:05.615Z,24.98
2018-08-22T19:25:33.400Z,24.94
2018-08-22T19:28:01.285Z,24.93
2018-08-22T19:30:29.463Z,24.88
2018-08-22T19:32:56.975Z,24.87
2018-08-22T19:35:24.370Z,24.83
2018-08-22T19:37:57.264Z,24.61
2018-08-22T19:40:26.264Z,24.37
2018-08-22T19:42:53.619Z,24.19
2018-08-22T19:45:20.973Z,24.06
2018-08-22T19:47:48.348Z,23.94
2018-08-22T19:50:15.683Z,23.82
2018-08-22T19:52:43.043Z,23.67
2018-08-22T19:55:10.375Z,23.58
2018-08-22T19:57:39.151Z,23.37
2018-08-22T20:00:12.890Z,23.20
2018-08-22T20:02:40.379Z,23.03
2018-08-22T20:05:09.598Z,22.91
2018-08-22T20:07:37.344Z,22.80
2018-08-22T20:10:04.850Z,22.82
2018-08-22T20:12:42.650Z,22.90
2018-08-22T20:15:10.046Z,23.15
2018-08-22T20:17:37.608Z,23.43
2018-08-22T20:20:15.570Z,23.67
2018-08-22T20:22:46.016Z,23.82
2018-08-22T20:25:13.758Z,23.90
2018-08-22T20:27:41.804Z,23.92
2018-08-22T20:30:11.957Z,23.84
2018-08-22T20:33:00.121Z,23.81
2018-08-22T20:35:32.336Z,23.74
2018-08-22T20:38:01.647Z,23.70
2018-08-22T20:40:29.147Z,23.73
2018-08-22T20:42:56.509Z,23.75
2018-08-22T20:45:29.279Z,23.77
2018-08-22T20:48:02.134Z,23.76
2018-08-22T20:50:29.391Z,23.70
2018-08-22T20:53:00.056Z,23.73
2018-08-22T20:55:27.580Z,23.77
2018-08-22T20:57:54.823Z,23.67
2018-08-22T21:00:23.858Z,23.72
2018-08-22T21:02:51.883Z,23.72
2018-08-22T21:05:19.207Z,23.67
2018-08-22T21:07:46.475Z,23.63
2018-08-22T21:10:13.912Z,23.57
2018-08-22T21:12:41.248Z,23.51
2018-08-22T21:15:08.487Z,23.47
2018-08-22T21:17:35.740Z,23.47
2018-08-22T21:20:09.616Z,23.53
2018-08-22T21:22:36.895Z,23.61
2018-08-22T21:25:04.517Z,23.72
2018-08-22T21:27:31.805Z,23.82
2018-08-22T21:29:59.029Z,23.80
2018-08-22T21:32:26.275Z,23.83
2018-08-22T21:34:53.492Z,23.83
2018-08-22T21:37:29.324Z,23.82
2018-08-22T21:39:56.606Z,23.87
2018-08-22T21:42:33.205Z,23.86
2018-08-22T21:45:00.821Z,23.83
2018-08-22T21:47:28.116Z,23.75
2018-08-22T21:54:53.730Z,23.59
2018-08-22T21:57:21.007Z,23.54
2018-08-22T21:59:55.577Z,23.45
2018-08-22T22:02:22.849Z,23.45
2018-08-22T22:04:50.138Z,23.45
2018-08-22T22:07:17.551Z,23.47
2018-08-22T22:09:44.772Z,23.45
2018-08-22T22:12:17.651Z,23.38
2018-08-22T22:14:45.202Z,23.41
2018-08-22T22:17:15.296Z,23.42
2018-08-22T22:19:42.613Z,23.41
2018-08-22T22:22:09.842Z,23.41
2018-08-22T22:24:45.592Z,23.46
2018-08-22T22:27:12.842Z,23.48
2018-08-22T22:29:40.102Z,23.47
2018-08-22T22:32:07.373Z,23.46
2018-08-22T22:34:34.623Z,23.48
2018-08-22T22:37:01.888Z,23.57
2018-08-22T22:39:36.862Z,23.56
2018-08-22T22:42:16.278Z,23.56
2018-08-22T22:44:45.998Z,23.52
2018-08-22T22:47:18.818Z,23.51
2018-08-22T22:49:46.281Z,23.36
2018-08-22T22:52:23.646Z,23.21
2018-08-22T22:54:53.395Z,22.97
2018-08-22T22:57:20.726Z,22.82
2018-08-22T22:59:48.179Z,22.66
2018-08-22T23:02:15.591Z,22.53
2018-08-22T23:04:46.066Z,22.47
2018-08-22T23:07:19.448Z,22.37
2018-08-22T23:09:50.251Z,22.30
2018-08-22T23:12:17.943Z,22.19
2018-08-22T23:14:45.199Z,22.01
2018-08-22T23:17:12.438Z,21.89
2018-08-22T23:19:39.859Z,21.78
2018-08-22T23:22:07.103Z,21.72
2018-08-22T23:24:34.352Z,21.65
2018-08-22T23:27:01.595Z,21.48
2018-08-22T23:29:28.847Z,21.42
2018-08-22T23:31:56.054Z,21.36
2018-08-22T23:34:23.437Z,21.28
2018-08-22T23:36:50.659Z,21.21
2018-08-22T23:39:17.977Z,21.17
2018-08-22T23:41:45.192Z,21.12
2018-08-22T23:44:12.436Z,21.05
2018-08-22T23:46:39.663Z,21.02
2018-08-22T23:49:06.909Z,20.96
2018-08-22T23:51:34.133Z,20.93
2018-08-22T23:54:01.390Z,20.85
2018-08-22T23:56:29.766Z,20.76
2018-08-22T23:58:57.562Z,20.64
